createdAt,value
2019-05-26T00:02:57.597Z,28.38
2019-05-26T00:05:59.204Z,28.60
2019-05-26T00:09:00.432Z,25.65
2019-05-26T00:12:01.964Z,26.30
2019-05-26T00:15:05.960Z,25.88
2019-05-26T00:18:07.397Z,31.65
2019-05-26T00:21:08.641Z,27.77
2019-05-26T00:24:10.320Z,33.13
2019-05-26T00:27:11.670Z,32.67
2019-05-26T00:30:13.027Z,29.50
2019-05-26T00:33:14.278Z,35.08
2019-05-26T00:36:16.173Z,38.05
2019-05-26T00:39:17.385Z,38.80
2019-05-26T00:42:18.828Z,37.03
2019-05-26T00:45:20.076Z,42.08
2019-05-26T00:48:21.477Z,38.02
2019-05-26T00:51:23.445Z,39.75
2019-05-26T00:54:24.998Z,36.90
2019-05-26T00:57:26.237Z,34.18
2019-05-26T01:00:38.886Z,32.30
2019-05-26T01:03:40.116Z,38.73
2019-05-26T01:06:41.367Z,38.50
2019-05-26T01:09:42.849Z,34.98
2019-05-26T01:12:44.060Z,34.38
2019-05-26T01:15:45.326Z,35.98
2019-05-26T01:18:46.557Z,34.90
2019-05-26T01:21:47.829Z,32.98
2019-05-26T01:24:49.057Z,31.25
2019-05-26T01:27:50.504Z,28.83
2019-05-26T01:30:51.741Z,28.77
2019-05-26T01:33:53.183Z,33.15
2019-05-26T01:36:54.525Z,28.67
2019-05-26T01:39:55.765Z,28.12
2019-05-26T01:42:57.137Z,30.00
2019-05-26T01:45:58.365Z,30.05
2019-05-26T01:48:59.742Z,27.50
2019-05-26T01:52:01.360Z,27.82
2019-05-26T01:55:04.761Z,28.40
2019-05-26T01:58:05.998Z,25.77
2019-05-26T02:01:07.314Z,26.65
2019-05-26T02:04:08.713Z,24.47
2019-05-26T02:07:10.436Z,28.05
2019-05-26T02:10:11.683Z,25.23
2019-05-26T02:13:13.117Z,27.15
2019-05-26T02:16:14.352Z,29.05
2019-05-26T02:19:15.802Z,34.40
2019-05-26T02:22:17.048Z,35.05
2019-05-26T02:25:18.890Z,34.80
2019-05-26T02:28:20.116Z,34.48
2019-05-26T02:31:21.557Z,35.63
2019-05-26T02:34:22.925Z,37.88
2019-05-26T02:37:24.170Z,36.80
2019-05-26T02:40:25.603Z,38.05
2019-05-26T02:43:26.835Z,31.85
2019-05-26T02:46:28.381Z,29.70
2019-05-26T02:49:29.610Z,31.20
2019-05-26T02:52:32.051Z,29.37
2019-05-26T02:55:33.289Z,29.02
2019-05-26T02:58:34.548Z,30.72
2019-05-26T03:01:35.981Z,31.40
2019-05-26T03:04:37.206Z,28.73
2019-05-26T03:07:44.210Z,27.85
2019-05-26T03:10:45.463Z,24.60
2019-05-26T03:13:46.715Z,26.50
2019-05-26T03:16:48.202Z,22.13
2019-05-26T03:19:49.765Z,23.45
2019-05-26T03:22:50.994Z,25.72
2019-05-26T03:25:52.438Z,22.70
2019-05-26T03:28:53.670Z,20.95
2019-05-26T03:31:55.118Z,19.37
2019-05-26T03:34:56.464Z,20.20
2019-05-26T03:37:57.899Z,19.42
2019-05-26T03:40:59.131Z,18.17
2019-05-26T03:44:00.566Z,20.30
2019-05-26T03:47:01.799Z,19.40
2019-05-26T03:50:06.120Z,19.20
2019-05-26T03:53:07.370Z,18.73
2019-05-26T03:56:08.794Z,18.95
2019-05-26T03:59:10.030Z,20.00
2019-05-26T04:02:11.489Z,18.60
2019-05-26T04:05:12.716Z,18.80
2019-05-26T04:08:14.175Z,17.62
2019-05-26T04:11:15.387Z,17.80
2019-05-26T04:14:16.651Z,17.37
2019-05-26T04:17:17.886Z,16.42
2019-05-26T04:20:19.246Z,15.10
2019-05-26T04:23:20.715Z,15.38
2019-05-26T04:26:22.094Z,14.78
2019-05-26T04:29:23.622Z,14.58
2019-05-26T04:32:24.995Z,14.07
2019-05-26T04:35:26.223Z,16.02
2019-05-26T04:38:27.792Z,13.88
2019-05-26T04:41:29.042Z,14.10
2019-05-26T04:44:30.297Z,13.58
2019-05-26T04:47:31.739Z,13.08
2019-05-26T04:50:33.017Z,13.48
2019-05-26T04:53:35.381Z,12.73
2019-05-26T04:56:36.622Z,12.15
2019-05-26T04:59:37.974Z,11.30
2019-05-26T05:02:39.222Z,10.98
2019-05-26T05:05:40.693Z,11.28
2019-05-26T05:08:41.960Z,11.12
2019-05-26T05:11:43.209Z,11.00
2019-05-26T05:14:44.448Z,10.80
2019-05-26T05:17:46.362Z,10.82
2019-05-26T05:20:47.672Z,10.80
2019-05-26T05:23:49.040Z,11.50
2019-05-26T05:26:50.283Z,11.48
2019-05-26T05:29:51.913Z,10.78
2019-05-26T05:32:53.182Z,10.10
2019-05-26T05:35:54.669Z,9.95
2019-05-26T05:38:55.960Z,9.93
2019-05-26T05:41:57.397Z,9.43
2019-05-26T05:44:59.088Z,9.18
2019-05-26T05:48:00.442Z,8.55
2019-05-26T05:51:01.886Z,8.73
2019-05-26T05:54:03.947Z,8.38
2019-05-26T05:57:05.570Z,7.35
2019-05-26T06:00:07.757Z,7.50
2019-05-26T06:03:10.741Z,7.20
2019-05-26T06:06:12.513Z,6.95
2019-05-26T06:09:14.208Z,7.55
2019-05-26T06:12:15.592Z,7.15
2019-05-26T06:15:17.745Z,6.78
2019-05-26T06:18:19.141Z,6.87
2019-05-26T06:21:20.890Z,7.22
2019-05-26T06:24:22.174Z,6.25
2019-05-26T06:27:23.448Z,5.80
2019-05-26T06:30:24.716Z,6.47
2019-05-26T06:33:26.175Z,5.60
2019-05-26T06:36:27.426Z,6.37
2019-05-26T06:39:28.972Z,6.00
2019-05-26T06:45:55.118Z,5.28
2019-05-26T06:48:56.418Z,5.10
2019-05-26T06:51:57.761Z,5.75
2019-05-26T06:54:59.128Z,5.75
2019-05-26T06:58:00.866Z,6.28
2019-05-26T07:01:02.320Z,6.10
2019-05-26T07:04:03.820Z,6.17
2019-05-26T07:07:05.070Z,5.92
2019-05-26T07:10:07.153Z,5.80
2019-05-26T07:13:08.419Z,5.53
2019-05-26T07:16:10.756Z,5.50
2019-05-26T07:19:11.993Z,5.30
2019-05-26T07:22:13.494Z,5.12
2019-05-26T07:25:15.066Z,5.10
2019-05-26T07:28:16.663Z,4.87
2019-05-26T07:31:18.175Z,5.20
2019-05-26T07:34:19.427Z,4.53
2019-05-26T07:37:21.030Z,5.03
2019-05-26T07:40:22.592Z,5.45
2019-05-26T07:43:27.877Z,5.45
2019-05-26T07:46:28.638Z,4.95
2019-05-26T07:49:29.918Z,5.20
2019-05-26T07:52:34.102Z,5.25
2019-05-26T07:55:35.710Z,5.10
2019-05-26T07:58:37.089Z,5.37
2019-05-26T08:01:38.566Z,5.33
2019-05-26T08:04:39.864Z,4.95
2019-05-26T08:07:41.274Z,5.03
2019-05-26T08:10:42.562Z,5.58
2019-05-26T08:13:43.849Z,4.60
2019-05-26T08:16:45.308Z,5.42
2019-05-26T08:19:47.136Z,5.00
2019-05-26T08:22:48.397Z,5.53
2019-05-26T08:25:49.990Z,5.40
2019-05-26T08:28:53.596Z,5.62
2019-05-26T08:31:55.831Z,5.67
2019-05-26T08:34:57.826Z,6.30
2019-05-26T08:38:00.391Z,5.75
2019-05-26T08:41:02.051Z,6.08
2019-05-26T08:44:04.402Z,5.78
2019-05-26T08:47:05.654Z,5.87
2019-05-26T08:50:07.368Z,5.60
2019-05-26T08:53:08.821Z,5.85
2019-05-26T08:56:10.954Z,5.55
2019-05-26T08:59:12.764Z,5.90
2019-05-26T09:02:15.047Z,5.83
2019-05-26T09:05:16.408Z,5.80
2019-05-26T09:08:18.208Z,5.42
2019-05-26T09:11:20.061Z,5.40
2019-05-26T09:14:21.555Z,6.00
2019-05-26T09:17:22.802Z,6.17
2019-05-26T09:20:24.714Z,5.65
2019-05-26T09:23:26.461Z,5.37
2019-05-26T09:26:27.861Z,5.75
2019-05-26T09:29:29.383Z,5.87
2019-05-26T09:32:30.885Z,5.28
2019-05-26T09:35:32.129Z,5.65
2019-05-26T09:38:33.427Z,5.28
2019-05-26T09:41:35.442Z,5.60
2019-05-26T09:44:36.949Z,5.85
2019-05-26T09:47:39.120Z,5.40
2019-05-26T09:50:40.609Z,5.20
2019-05-26T09:53:42.382Z,5.40
2019-05-26T09:56:44.657Z,5.47
2019-05-26T09:59:46.493Z,5.55
2019-05-26T10:02:47.949Z,5.50
2019-05-26T10:05:49.257Z,4.80
2019-05-26T10:08:50.825Z,5.17
2019-05-26T10:11:52.361Z,5.35
2019-05-26T10:14:53.662Z,5.35
2019-05-26T10:17:55.232Z,5.50
2019-05-26T10:20:56.533Z,4.92
2019-05-26T10:23:58.046Z,4.92
2019-05-26T10:26:59.304Z,5.10
2019-05-26T10:30:00.657Z,4.95
2019-05-26T10:33:01.890Z,4.97
2019-05-26T10:36:03.459Z,5.00
2019-05-26T10:39:06.498Z,5.20
2019-05-26T10:42:07.747Z,5.10
2019-05-26T10:45:09.323Z,4.15
2019-05-26T10:48:12.469Z,4.70
2019-05-26T10:51:13.720Z,4.65
2019-05-26T10:54:14.993Z,4.97
2019-05-26T10:57:16.716Z,4.67
2019-05-26T11:00:17.967Z,4.40
2019-05-26T11:03:19.418Z,4.50
2019-05-26T11:06:20.647Z,4.67
2019-05-26T11:09:22.089Z,4.92
2019-05-26T11:12:23.705Z,4.70
2019-05-26T11:15:25.093Z,5.20
2019-05-26T11:18:26.349Z,4.90
2019-05-26T11:21:28.027Z,4.22
2019-05-26T11:24:29.277Z,4.40
2019-05-26T11:27:30.744Z,4.55
2019-05-26T11:30:31.999Z,4.72
2019-05-26T11:33:33.580Z,4.55
2019-05-26T11:36:34.912Z,4.83
2019-05-26T11:39:36.177Z,4.60
2019-05-26T11:42:37.429Z,4.15
2019-05-26T11:45:38.905Z,4.28
2019-05-26T11:48:40.830Z,4.47
2019-05-26T11:51:42.394Z,3.75
2019-05-26T11:54:43.639Z,4.15
2019-05-26T11:57:44.881Z,3.90
2019-05-26T12:00:46.169Z,3.98
2019-05-26T12:03:47.611Z,4.58
2019-05-26T12:06:48.854Z,4.60
2019-05-26T12:09:50.115Z,4.40
2019-05-26T12:12:51.386Z,3.87
2019-05-26T12:15:52.936Z,3.98
2019-05-26T12:18:54.353Z,3.87
2019-05-26T12:21:55.760Z,3.62
2019-05-26T12:24:57.017Z,3.70
2019-05-26T12:27:58.461Z,3.40
2019-05-26T12:30:59.755Z,3.60
2019-05-26T12:34:01.170Z,3.47
2019-05-26T12:37:02.517Z,3.75
2019-05-26T12:40:06.666Z,3.35
2019-05-26T12:43:07.997Z,3.50
2019-05-26T12:46:09.273Z,3.50
2019-05-26T12:49:10.581Z,3.52
2019-05-26T12:52:13.287Z,3.40
2019-05-26T12:55:15.157Z,3.12
2019-05-26T12:58:16.670Z,2.95
2019-05-26T13:01:17.890Z,3.20
2019-05-26T13:04:20.123Z,3.20
2019-05-26T13:07:21.358Z,3.17
2019-05-26T13:10:23.051Z,3.12
2019-05-26T13:13:24.354Z,3.10
2019-05-26T13:16:26.163Z,2.60
2019-05-26T13:19:27.377Z,2.92
2019-05-26T13:22:29.029Z,2.90
2019-05-26T13:25:30.268Z,3.33
2019-05-26T13:28:31.525Z,2.90
2019-05-26T13:31:32.975Z,3.02
2019-05-26T13:34:35.805Z,3.40
2019-05-26T13:37:37.469Z,3.42
2019-05-26T13:40:38.936Z,3.20
2019-05-26T13:43:40.916Z,2.80
2019-05-26T13:46:42.889Z,3.02
2019-05-26T13:49:44.780Z,3.00
2019-05-26T13:52:46.535Z,3.30
2019-05-26T13:55:49.396Z,3.02
2019-05-26T13:58:51.183Z,3.30
2019-05-26T14:01:52.469Z,3.17
2019-05-26T14:04:53.901Z,3.25
2019-05-26T14:07:55.527Z,3.30
2019-05-26T14:10:56.882Z,3.25
2019-05-26T14:13:58.618Z,3.20
2019-05-26T14:16:59.866Z,3.30
2019-05-26T14:20:02.814Z,3.22
2019-05-26T14:23:05.496Z,3.55
2019-05-26T14:26:06.730Z,3.50
2019-05-26T14:29:08.084Z,3.02
2019-05-26T14:32:09.869Z,2.98
2019-05-26T14:35:11.137Z,2.75
2019-05-26T14:38:12.786Z,3.00
2019-05-26T14:41:14.222Z,3.25
2019-05-26T14:44:15.718Z,2.87
2019-05-26T14:47:17.003Z,2.80
2019-05-26T14:50:18.400Z,2.70
2019-05-26T14:53:20.158Z,2.70
2019-05-26T14:56:22.334Z,2.80
2019-05-26T14:59:24.211Z,2.85
2019-05-26T15:02:25.447Z,3.12
2019-05-26T15:05:27.138Z,2.90
2019-05-26T15:08:28.422Z,3.40
2019-05-26T15:11:29.788Z,2.90
2019-05-26T15:14:31.025Z,2.58
2019-05-26T15:17:32.389Z,4.10
2019-05-26T15:20:33.647Z,20.90
2019-05-26T15:23:35.030Z,8.70
2019-05-26T15:26:36.279Z,3.40
2019-05-26T15:29:37.525Z,2.90
2019-05-26T15:32:38.931Z,2.92
2019-05-26T15:35:44.829Z,2.90
2019-05-26T15:38:46.090Z,3.05
2019-05-26T15:41:47.359Z,2.85
2019-05-26T15:44:55.148Z,3.08
2019-05-26T15:47:56.492Z,3.25
2019-05-26T15:51:01.002Z,3.27
2019-05-26T15:54:02.722Z,3.90
2019-05-26T15:57:05.728Z,3.17
2019-05-26T16:00:08.720Z,9.45
2019-05-26T16:03:10.143Z,3.90
2019-05-26T16:06:15.017Z,16.77
2019-05-26T16:09:19.456Z,5.33
2019-05-26T16:12:21.453Z,3.95
2019-05-26T16:15:26.363Z,10.82
2019-05-26T16:18:28.078Z,3.70
2019-05-26T16:21:32.909Z,4.10
2019-05-26T16:24:36.359Z,3.65
2019-05-26T16:27:40.914Z,3.50
2019-05-26T16:30:42.927Z,3.42
2019-05-26T16:33:45.330Z,3.15
2019-05-26T16:36:48.407Z,3.20
2019-05-26T16:39:50.829Z,3.00
2019-05-26T16:42:52.526Z,3.30
2019-05-26T16:45:56.471Z,2.80
2019-05-26T16:48:57.079Z,3.33
2019-05-26T16:51:58.405Z,3.10
2019-05-26T16:54:59.720Z,2.67
2019-05-26T16:58:01.577Z,3.00
2019-05-26T17:01:02.863Z,3.00
2019-05-26T17:04:04.325Z,3.10
2019-05-26T17:07:07.076Z,2.95
2019-05-26T17:10:08.329Z,3.20
2019-05-26T17:13:10.194Z,3.33
2019-05-26T17:16:11.452Z,3.60
2019-05-26T17:19:13.751Z,3.50
2019-05-26T17:22:15.891Z,3.75
2019-05-26T17:25:18.637Z,4.00
2019-05-26T17:28:20.767Z,4.10
2019-05-26T17:31:23.089Z,3.77
2019-05-26T17:34:25.615Z,3.90
2019-05-26T17:37:28.755Z,3.90
2019-05-26T17:40:31.522Z,21.65
2019-05-26T17:43:34.097Z,4.45
2019-05-26T17:46:36.145Z,5.28
2019-05-26T17:49:40.632Z,5.92
2019-05-26T17:52:42.858Z,6.30
2019-05-26T17:55:45.257Z,7.30
2019-05-26T17:58:48.418Z,7.53
2019-05-26T18:01:53.151Z,7.75
2019-05-26T18:04:55.108Z,7.03
2019-05-26T18:07:56.389Z,10.13
2019-05-26T18:10:57.833Z,8.63
2019-05-26T18:14:00.197Z,8.90
2019-05-26T18:17:02.589Z,9.78
2019-05-26T18:20:07.751Z,8.58
2019-05-26T18:23:09.449Z,9.38
2019-05-26T18:26:10.745Z,10.00
2019-05-26T18:29:12.256Z,9.05
2019-05-26T18:32:13.567Z,9.90
2019-05-26T18:35:15.065Z,8.53
2019-05-26T18:38:16.438Z,7.28
2019-05-26T18:41:20.803Z,7.30
2019-05-26T18:44:22.226Z,7.00
2019-05-26T18:47:23.849Z,7.12
2019-05-26T18:50:25.647Z,7.10
2019-05-26T18:53:29.643Z,8.03
2019-05-26T18:56:30.631Z,7.95
2019-05-26T18:59:32.534Z,8.00
2019-05-26T19:02:34.204Z,7.67
2019-05-26T19:05:38.314Z,8.45
2019-05-26T19:08:40.846Z,8.95
2019-05-26T19:11:42.072Z,7.95
2019-05-26T19:14:43.592Z,7.92
2019-05-26T19:17:44.823Z,8.10
2019-05-26T19:20:46.560Z,8.60
2019-05-26T19:23:47.824Z,8.63
2019-05-26T19:26:51.407Z,9.43
2019-05-26T19:29:52.562Z,9.45
2019-05-26T19:32:53.813Z,9.30
2019-05-26T19:35:55.630Z,8.55
2019-05-26T19:38:58.451Z,8.45
2019-05-26T19:42:00.306Z,9.38
2019-05-26T19:45:04.663Z,9.45
2019-05-26T19:48:05.943Z,9.68
2019-05-26T19:51:10.446Z,10.05
2019-05-26T19:54:11.910Z,9.53
2019-05-26T19:57:13.647Z,9.73
2019-05-26T20:00:16.614Z,9.80
2019-05-26T20:03:20.759Z,10.78
2019-05-26T20:06:22.364Z,11.03
2019-05-26T20:09:24.142Z,11.08
2019-05-26T20:12:26.376Z,11.25
2019-05-26T20:15:30.169Z,10.90
2019-05-26T20:18:32.475Z,10.23
2019-05-26T20:21:34.459Z,10.08
2019-05-26T20:24:35.739Z,9.50
2019-05-26T20:27:39.366Z,10.58
2019-05-26T20:30:40.751Z,10.95
2019-05-26T20:33:43.081Z,9.28
2019-05-26T20:36:44.313Z,10.63
2019-05-26T20:39:46.256Z,9.95
2019-05-26T20:42:51.677Z,9.93
2019-05-26T20:45:57.070Z,10.08
2019-05-26T20:48:58.568Z,11.38
2019-05-26T20:52:02.475Z,10.88
2019-05-26T20:55:06.210Z,11.88
2019-05-26T20:58:08.505Z,11.50
2019-05-26T21:01:09.945Z,12.05
2019-05-26T21:04:11.627Z,11.80
2019-05-26T21:07:14.052Z,11.75
2019-05-26T21:10:16.360Z,11.50
2019-05-26T21:13:18.765Z,12.53
2019-05-26T21:16:20.355Z,11.80
2019-05-26T21:19:24.329Z,12.33
2019-05-26T21:22:26.818Z,14.00
2019-05-26T21:25:29.415Z,13.45
2019-05-26T21:28:30.823Z,11.95
2019-05-26T21:31:32.967Z,11.83
2019-05-26T21:34:34.270Z,13.85
2019-05-26T21:37:36.243Z,13.40
2019-05-26T21:40:38.164Z,14.28
2019-05-26T21:43:40.558Z,13.53
2019-05-26T21:46:41.839Z,12.80
2019-05-26T21:49:43.718Z,13.88
2019-05-26T21:52:45.534Z,14.03
2019-05-26T21:55:47.725Z,13.30
2019-05-26T21:58:50.439Z,13.70
2019-05-26T22:01:53.018Z,14.03
2019-05-26T22:04:54.860Z,14.30
2019-05-26T22:07:56.488Z,12.07
2019-05-26T22:10:57.952Z,13.48
2019-05-26T22:13:59.378Z,14.33
2019-05-26T22:17:00.633Z,14.90
2019-05-26T22:20:03.769Z,15.50
2019-05-26T22:23:05.277Z,14.75
2019-05-26T22:26:07.120Z,15.28
2019-05-26T22:29:08.749Z,15.30
2019-05-26T22:32:10.121Z,13.78
2019-05-26T22:35:11.786Z,16.23
2019-05-26T22:38:13.305Z,16.62
2019-05-26T22:41:14.605Z,15.95
2019-05-26T22:44:16.774Z,17.75
2019-05-26T22:47:18.001Z,16.80
2019-05-26T22:50:19.710Z,16.82
2019-05-26T22:53:20.996Z,18.98
2019-05-26T22:56:22.391Z,18.55
2019-05-26T22:59:23.650Z,16.32
2019-05-26T23:02:25.107Z,18.73
2019-05-26T23:05:26.326Z,17.75
2019-05-26T23:08:27.768Z,18.77
2019-05-26T23:11:29.109Z,19.37
2019-05-26T23:14:30.713Z,17.67
2019-05-26T23:17:31.935Z,20.85
2019-05-26T23:20:33.478Z,20.30
2019-05-26T23:23:35.513Z,17.87
2019-05-26T23:26:36.745Z,20.75
2019-05-26T23:29:38.171Z,23.12
2019-05-26T23:32:39.397Z,22.20
2019-05-26T23:35:40.833Z,22.07
2019-05-26T23:38:42.078Z,24.85
2019-05-26T23:41:43.749Z,24.25
2019-05-26T23:44:44.982Z,20.60
2019-05-26T23:47:46.240Z,21.40
2019-05-26T23:50:48.741Z,25.95
2019-05-26T23:53:49.938Z,23.42
2019-05-26T23:56:52.043Z,23.52
2019-05-26T23:59:54.961Z,23.80
